sensor_id;sensor_type;location;lat;lon;timestamp;temperature;humidity
6102;DHT22;3081;50.584;7.032;2023-06-26T00:00:11;22.70;71.80
6102;DHT22;3081;50.584;7.032;2023-06-26T00:02:38;22.60;71.80
6102;DHT22;3081;50.584;7.032;2023-06-26T00:05:06;22.60;71.90
6102;DHT22;3081;50.584;7.032;2023-06-26T00:07:33;22.60;71.90
6102;DHT22;3081;50.584;7.032;2023-06-26T00:10:00;22.60;72.20
6102;DHT22;3081;50.584;7.032;2023-06-26T00:12:28;22.60;72.10
6102;DHT22;3081;50.584;7.032;2023-06-26T00:14:55;22.50;72.20
6102;DHT22;3081;50.584;7.032;2023-06-26T00:17:23;22.50;72.50
6102;DHT22;3081;50.584;7.032;2023-06-26T00:19:50;22.50;73.00
6102;DHT22;3081;50.584;7.032;2023-06-26T00:22:17;22.40;73.40
6102;DHT22;3081;50.584;7.032;2023-06-26T00:24:44;22.30;73.30
6102;DHT22;3081;50.584;7.032;2023-06-26T00:27:11;22.30;73.40
6102;DHT22;3081;50.584;7.032;2023-06-26T00:29:38;22.30;73.60
6102;DHT22;3081;50.584;7.032;2023-06-26T00:32:06;22.20;73.70
6102;DHT22;3081;50.584;7.032;2023-06-26T00:34:35;22.20;74.00
6102;DHT22;3081;50.584;7.032;2023-06-26T00:37:02;22.20;74.20
6102;DHT22;3081;50.584;7.032;2023-06-26T00:39:29;22.20;74.30
6102;DHT22;3081;50.584;7.032;2023-06-26T00:41:56;22.10;74.70
6102;DHT22;3081;50.584;7.032;2023-06-26T00:44:23;22.10;75.10
6102;DHT22;3081;50.584;7.032;2023-06-26T00:46:50;22.00;75.70
6102;DHT22;3081;50.584;7.032;2023-06-26T00:49:17;21.90;76.00
6102;DHT22;3081;50.584;7.032;2023-06-26T00:51:46;21.80;76.30
6102;DHT22;3081;50.584;7.032;2023-06-26T00:54:14;21.80;76.70
6102;DHT22;3081;50.584;7.032;2023-06-26T00:56:46;21.70;76.90
6102;DHT22;3081;50.584;7.032;2023-06-26T00:59:13;21.70;77.40
6102;DHT22;3081;50.584;7.032;2023-06-26T01:01:40;21.60;77.80
6102;DHT22;3081;50.584;7.032;2023-06-26T01:04:07;21.60;78.20
6102;DHT22;3081;50.584;7.032;2023-06-26T01:06:45;21.50;78.50
6102;DHT22;3081;50.584;7.032;2023-06-26T01:09:16;21.40;78.70
6102;DHT22;3081;50.584;7.032;2023-06-26T01:11:44;21.40;78.90
6102;DHT22;3081;50.584;7.032;2023-06-26T01:14:11;21.30;79.10
6102;DHT22;3081;50.584;7.032;2023-06-26T01:16:38;21.30;79.20
6102;DHT22;3081;50.584;7.032;2023-06-26T01:19:10;21.30;79.50
6102;DHT22;3081;50.584;7.032;2023-06-26T01:21:42;21.20;79.70
6102;DHT22;3081;50.584;7.032;2023-06-26T01:24:16;21.20;79.80
6102;DHT22;3081;50.584;7.032;2023-06-26T01:26:49;21.20;80.00
6102;DHT22;3081;50.584;7.032;2023-06-26T01:29:17;21.20;80.30
6102;DHT22;3081;50.584;7.032;2023-06-26T01:31:45;21.10;80.50
6102;DHT22;3081;50.584;7.032;2023-06-26T01:34:15;21.00;80.60
6102;DHT22;3081;50.584;7.032;2023-06-26T01:36:42;21.00;81.00
6102;DHT22;3081;50.584;7.032;2023-06-26T01:39:10;20.90;81.20
6102;DHT22;3081;50.584;7.032;2023-06-26T01:41:37;20.90;81.40
6102;DHT22;3081;50.584;7.032;2023-06-26T01:44:14;20.90;81.70
6102;DHT22;3081;50.584;7.032;2023-06-26T01:46:52;20.90;81.80
6102;DHT22;3081;50.584;7.032;2023-06-26T01:49:25;20.90;82.00
6102;DHT22;3081;50.584;7.032;2023-06-26T01:52:08;20.80;82.30
6102;DHT22;3081;50.584;7.032;2023-06-26T01:54:41;20.80;82.50
6102;DHT22;3081;50.584;7.032;2023-06-26T01:57:10;20.80;82.50
6102;DHT22;3081;50.584;7.032;2023-06-26T01:59:40;20.80;82.40
6102;DHT22;3081;50.584;7.032;2023-06-26T02:02:08;20.80;82.80
6102;DHT22;3081;50.584;7.032;2023-06-26T02:04:35;20.70;83.00
6102;DHT22;3081;50.584;7.032;2023-06-26T02:07:03;20.70;83.50
6102;DHT22;3081;50.584;7.032;2023-06-26T02:09:30;20.60;84.30
6102;DHT22;3081;50.584;7.032;2023-06-26T02:11:57;20.50;85.00
6102;DHT22;3081;50.584;7.032;2023-06-26T02:14:24;20.40;85.60
6102;DHT22;3081;50.584;7.032;2023-06-26T02:16:52;20.30;86.30
6102;DHT22;3081;50.584;7.032;2023-06-26T02:19:19;20.20;86.60
6102;DHT22;3081;50.584;7.032;2023-06-26T02:21:47;20.20;86.90
6102;DHT22;3081;50.584;7.032;2023-06-26T02:24:14;20.20;86.70
6102;DHT22;3081;50.584;7.032;2023-06-26T02:26:41;20.20;86.30
6102;DHT22;3081;50.584;7.032;2023-06-26T02:29:08;20.30;85.70
6102;DHT22;3081;50.584;7.032;2023-06-26T02:31:35;20.40;84.80
6102;DHT22;3081;50.584;7.032;2023-06-26T02:34:04;20.50;84.10
6102;DHT22;3081;50.584;7.032;2023-06-26T02:36:31;20.60;83.30
6102;DHT22;3081;50.584;7.032;2023-06-26T02:38:57;20.80;82.30
6102;DHT22;3081;50.584;7.032;2023-06-26T02:41:24;20.90;81.30
6102;DHT22;3081;50.584;7.032;2023-06-26T02:43:51;21.00;80.60
6102;DHT22;3081;50.584;7.032;2023-06-26T02:46:18;21.20;79.80
6102;DHT22;3081;50.584;7.032;2023-06-26T02:48:45;21.30;79.00
6102;DHT22;3081;50.584;7.032;2023-06-26T02:51:13;21.40;78.90
6102;DHT22;3081;50.584;7.032;2023-06-26T02:53:40;21.50;78.70
6102;DHT22;3081;50.584;7.032;2023-06-26T02:56:07;21.60;78.80
6102;DHT22;3081;50.584;7.032;2023-06-26T02:58:34;21.70;80.20
6102;DHT22;3081;50.584;7.032;2023-06-26T03:01:01;21.70;80.80
6102;DHT22;3081;50.584;7.032;2023-06-26T03:03:28;21.50;81.40
6102;DHT22;3081;50.584;7.032;2023-06-26T03:05:54;21.30;82.70
6102;DHT22;3081;50.584;7.032;2023-06-26T03:08:23;21.10;83.90
6102;DHT22;3081;50.584;7.032;2023-06-26T03:10:50;20.90;84.80
6102;DHT22;3081;50.584;7.032;2023-06-26T03:13:17;20.70;85.20
6102;DHT22;3081;50.584;7.032;2023-06-26T03:15:44;20.50;85.60
6102;DHT22;3081;50.584;7.032;2023-06-26T03:18:11;20.40;86.40
6102;DHT22;3081;50.584;7.032;2023-06-26T03:20:38;20.40;87.40
6102;DHT22;3081;50.584;7.032;2023-06-26T03:23:05;20.40;87.20
6102;DHT22;3081;50.584;7.032;2023-06-26T03:25:33;20.40;87.50
6102;DHT22;3081;50.584;7.032;2023-06-26T03:28:00;20.40;87.70
6102;DHT22;3081;50.584;7.032;2023-06-26T03:30:27;20.40;88.20
6102;DHT22;3081;50.584;7.032;2023-06-26T03:32:54;20.30;88.90
6102;DHT22;3081;50.584;7.032;2023-06-26T03:35:21;20.20;89.70
6102;DHT22;3081;50.584;7.032;2023-06-26T03:37:49;20.10;90.10
6102;DHT22;3081;50.584;7.032;2023-06-26T03:40:16;20.00;90.30
6102;DHT22;3081;50.584;7.032;2023-06-26T03:42:44;20.00;90.60
6102;DHT22;3081;50.584;7.032;2023-06-26T03:45:11;19.90;90.80
6102;DHT22;3081;50.584;7.032;2023-06-26T03:47:38;19.90;90.90
6102;DHT22;3081;50.584;7.032;2023-06-26T03:50:05;20.00;90.70
6102;DHT22;3081;50.584;7.032;2023-06-26T03:52:32;20.10;90.40
6102;DHT22;3081;50.584;7.032;2023-06-26T03:55:00;20.30;90.30
6102;DHT22;3081;50.584;7.032;2023-06-26T03:57:26;20.40;90.10
6102;DHT22;3081;50.584;7.032;2023-06-26T03:59:55;20.50;89.90
6102;DHT22;3081;50.584;7.032;2023-06-26T04:02:22;20.60;89.80
6102;DHT22;3081;50.584;7.032;2023-06-26T04:04:49;20.60;89.60
6102;DHT22;3081;50.584;7.032;2023-06-26T04:07:16;20.70;89.80
6102;DHT22;3081;50.584;7.032;2023-06-26T04:09:42;20.70;90.00
6102;DHT22;3081;50.584;7.032;2023-06-26T04:12:09;20.80;90.20
6102;DHT22;3081;50.584;7.032;2023-06-26T04:14:36;20.70;90.30
6102;DHT22;3081;50.584;7.032;2023-06-26T04:17:05;20.80;90.50
6102;DHT22;3081;50.584;7.032;2023-06-26T04:19:32;20.90;90.80
6102;DHT22;3081;50.584;7.032;2023-06-26T04:21:59;20.80;90.80
6102;DHT22;3081;50.584;7.032;2023-06-26T04:24:26;20.80;90.80
6102;DHT22;3081;50.584;7.032;2023-06-26T04:26:53;20.90;90.90
6102;DHT22;3081;50.584;7.032;2023-06-26T04:29:22;21.00;90.90
6102;DHT22;3081;50.584;7.032;2023-06-26T04:31:51;21.10;91.50
6102;DHT22;3081;50.584;7.032;2023-06-26T04:34:19;21.10;91.60
6102;DHT22;3081;50.584;7.032;2023-06-26T04:36:46;21.10;91.50
6102;DHT22;3081;50.584;7.032;2023-06-26T04:39:13;21.20;91.10
6102;DHT22;3081;50.584;7.032;2023-06-26T04:41:41;21.30;91.10
6102;DHT22;3081;50.584;7.032;2023-06-26T04:44:08;21.30;91.20
6102;DHT22;3081;50.584;7.032;2023-06-26T04:46:36;21.30;91.40
6102;DHT22;3081;50.584;7.032;2023-06-26T04:49:06;21.40;91.30
6102;DHT22;3081;50.584;7.032;2023-06-26T04:51:35;21.60;91.30
6102;DHT22;3081;50.584;7.032;2023-06-26T04:54:06;21.70;91.00
6102;DHT22;3081;50.584;7.032;2023-06-26T04:56:32;21.90;91.00
6102;DHT22;3081;50.584;7.032;2023-06-26T04:58:59;22.10;91.10
6102;DHT22;3081;50.584;7.032;2023-06-26T05:01:26;22.40;91.00
6102;DHT22;3081;50.584;7.032;2023-06-26T05:03:55;22.70;90.70
6102;DHT22;3081;50.584;7.032;2023-06-26T05:06:22;23.00;90.20
6102;DHT22;3081;50.584;7.032;2023-06-26T05:08:50;23.20;89.60
6102;DHT22;3081;50.584;7.032;2023-06-26T05:11:17;23.40;88.60
6102;DHT22;3081;50.584;7.032;2023-06-26T05:13:44;23.60;87.90
6102;DHT22;3081;50.584;7.032;2023-06-26T05:16:11;23.70;87.20
6102;DHT22;3081;50.584;7.032;2023-06-26T05:18:38;23.90;86.30
6102;DHT22;3081;50.584;7.032;2023-06-26T05:21:05;24.10;86.40
6102;DHT22;3081;50.584;7.032;2023-06-26T05:23:33;24.10;84.60
6102;DHT22;3081;50.584;7.032;2023-06-26T05:26:02;24.10;83.20
6102;DHT22;3081;50.584;7.032;2023-06-26T05:28:30;24.10;83.80
6102;DHT22;3081;50.584;7.032;2023-06-26T05:30:58;24.00;83.60
6102;DHT22;3081;50.584;7.032;2023-06-26T05:33:26;23.90;82.70
6102;DHT22;3081;50.584;7.032;2023-06-26T05:35:54;23.70;83.00
6102;DHT22;3081;50.584;7.032;2023-06-26T05:38:22;23.60;83.10
6102;DHT22;3081;50.584;7.032;2023-06-26T05:40:49;23.60;81.50
6102;DHT22;3081;50.584;7.032;2023-06-26T05:43:18;23.40;81.80
6102;DHT22;3081;50.584;7.032;2023-06-26T05:45:47;23.30;82.50
6102;DHT22;3081;50.584;7.032;2023-06-26T05:48:14;23.10;83.20
6102;DHT22;3081;50.584;7.032;2023-06-26T05:50:42;23.10;83.60
6102;DHT22;3081;50.584;7.032;2023-06-26T05:53:11;23.10;83.80
6102;DHT22;3081;50.584;7.032;2023-06-26T05:55:38;23.10;83.80
6102;DHT22;3081;50.584;7.032;2023-06-26T05:58:10;23.10;84.30
6102;DHT22;3081;50.584;7.032;2023-06-26T06:00:39;23.10;84.40
6102;DHT22;3081;50.584;7.032;2023-06-26T06:03:06;23.10;84.70
6102;DHT22;3081;50.584;7.032;2023-06-26T06:05:34;23.20;84.70
6102;DHT22;3081;50.584;7.032;2023-06-26T06:08:01;23.40;84.70
6102;DHT22;3081;50.584;7.032;2023-06-26T06:10:28;23.60;84.30
6102;DHT22;3081;50.584;7.032;2023-06-26T06:12:55;23.80;84.30
6102;DHT22;3081;50.584;7.032;2023-06-26T06:15:22;23.90;83.90
6102;DHT22;3081;50.584;7.032;2023-06-26T06:17:50;23.90;84.20
6102;DHT22;3081;50.584;7.032;2023-06-26T06:20:17;23.90;84.50
6102;DHT22;3081;50.584;7.032;2023-06-26T06:22:45;23.80;84.70
6102;DHT22;3081;50.584;7.032;2023-06-26T06:25:14;23.70;85.40
6102;DHT22;3081;50.584;7.032;2023-06-26T06:27:41;23.60;85.90
6102;DHT22;3081;50.584;7.032;2023-06-26T06:30:09;23.50;87.10
6102;DHT22;3081;50.584;7.032;2023-06-26T06:32:36;23.40;87.50
6102;DHT22;3081;50.584;7.032;2023-06-26T06:35:05;23.40;88.60
6102;DHT22;3081;50.584;7.032;2023-06-26T06:37:35;23.40;89.00
6102;DHT22;3081;50.584;7.032;2023-06-26T06:40:03;23.40;89.80
6102;DHT22;3081;50.584;7.032;2023-06-26T06:42:31;23.70;90.00
6102;DHT22;3081;50.584;7.032;2023-06-26T06:44:58;24.00;88.90
6102;DHT22;3081;50.584;7.032;2023-06-26T06:47:25;24.10;89.40
6102;DHT22;3081;50.584;7.032;2023-06-26T06:49:52;24.20;89.10
6102;DHT22;3081;50.584;7.032;2023-06-26T06:52:21;24.20;88.20
6102;DHT22;3081;50.584;7.032;2023-06-26T06:54:54;24.00;89.10
6102;DHT22;3081;50.584;7.032;2023-06-26T06:57:24;24.00;89.80
6102;DHT22;3081;50.584;7.032;2023-06-26T06:59:51;23.90;89.90
6102;DHT22;3081;50.584;7.032;2023-06-26T07:02:18;23.90;89.40
6102;DHT22;3081;50.584;7.032;2023-06-26T07:04:45;23.80;90.30
6102;DHT22;3081;50.584;7.032;2023-06-26T07:07:12;23.80;90.10
6102;DHT22;3081;50.584;7.032;2023-06-26T07:09:41;23.90;90.20
6102;DHT22;3081;50.584;7.032;2023-06-26T07:12:08;24.00;90.40
6102;DHT22;3081;50.584;7.032;2023-06-26T07:14:35;24.20;89.50
6102;DHT22;3081;50.584;7.032;2023-06-26T07:17:02;24.20;89.90
6102;DHT22;3081;50.584;7.032;2023-06-26T07:19:29;24.30;90.00
6102;DHT22;3081;50.584;7.032;2023-06-26T07:21:56;24.30;89.70
6102;DHT22;3081;50.584;7.032;2023-06-26T07:24:23;24.20;89.70
6102;DHT22;3081;50.584;7.032;2023-06-26T07:26:51;24.00;90.00
6102;DHT22;3081;50.584;7.032;2023-06-26T07:29:18;23.80;90.50
6102;DHT22;3081;50.584;7.032;2023-06-26T07:31:45;23.60;90.80
6102;DHT22;3081;50.584;7.032;2023-06-26T07:34:13;23.50;91.60
6102;DHT22;3081;50.584;7.032;2023-06-26T07:36:40;23.60;91.50
6102;DHT22;3081;50.584;7.032;2023-06-26T07:39:07;23.70;92.00
6102;DHT22;3081;50.584;7.032;2023-06-26T07:41:34;23.70;91.40
6102;DHT22;3081;50.584;7.032;2023-06-26T07:44:02;23.70;91.50
6102;DHT22;3081;50.584;7.032;2023-06-26T07:46:29;23.80;91.20
6102;DHT22;3081;50.584;7.032;2023-06-26T07:48:56;23.90;92.00
6102;DHT22;3081;50.584;7.032;2023-06-26T07:51:23;24.00;91.70
6102;DHT22;3081;50.584;7.032;2023-06-26T07:53:50;24.30;90.30
6102;DHT22;3081;50.584;7.032;2023-06-26T07:56:17;24.40;90.40
6102;DHT22;3081;50.584;7.032;2023-06-26T07:58:44;24.60;88.90
6102;DHT22;3081;50.584;7.032;2023-06-26T08:01:12;24.80;88.30
6102;DHT22;3081;50.584;7.032;2023-06-26T08:03:39;24.80;85.80
6102;DHT22;3081;50.584;7.032;2023-06-26T08:06:06;24.50;85.60
6102;DHT22;3081;50.584;7.032;2023-06-26T08:08:33;24.30;85.90
6102;DHT22;3081;50.584;7.032;2023-06-26T08:11:00;24.00;87.40
6102;DHT22;3081;50.584;7.032;2023-06-26T08:13:27;23.90;88.60
6102;DHT22;3081;50.584;7.032;2023-06-26T08:15:54;24.00;89.60
6102;DHT22;3081;50.584;7.032;2023-06-26T08:18:22;24.20;90.00
6102;DHT22;3081;50.584;7.032;2023-06-26T08:20:49;24.30;90.00
6102;DHT22;3081;50.584;7.032;2023-06-26T08:23:16;24.30;87.80
6102;DHT22;3081;50.584;7.032;2023-06-26T08:25:43;24.30;89.40
6102;DHT22;3081;50.584;7.032;2023-06-26T08:28:12;24.50;89.10
6102;DHT22;3081;50.584;7.032;2023-06-26T08:30:39;24.70;89.40
6102;DHT22;3081;50.584;7.032;2023-06-26T08:33:06;24.90;88.90
6102;DHT22;3081;50.584;7.032;2023-06-26T08:35:39;24.90;88.50
6102;DHT22;3081;50.584;7.032;2023-06-26T08:38:05;24.80;89.80
6102;DHT22;3081;50.584;7.032;2023-06-26T08:40:34;24.90;88.20
6102;DHT22;3081;50.584;7.032;2023-06-26T08:43:02;24.70;84.30
6102;DHT22;3081;50.584;7.032;2023-06-26T08:45:29;24.60;84.90
6102;DHT22;3081;50.584;7.032;2023-06-26T08:47:59;24.50;85.00
6102;DHT22;3081;50.584;7.032;2023-06-26T08:50:29;24.60;84.90
6102;DHT22;3081;50.584;7.032;2023-06-26T08:53:03;24.70;85.80
6102;DHT22;3081;50.584;7.032;2023-06-26T08:55:35;24.90;85.40
6102;DHT22;3081;50.584;7.032;2023-06-26T08:58:02;25.10;83.00
6102;DHT22;3081;50.584;7.032;2023-06-26T09:00:30;25.20;81.50
6102;DHT22;3081;50.584;7.032;2023-06-26T09:02:57;25.00;82.00
6102;DHT22;3081;50.584;7.032;2023-06-26T09:05:25;24.70;83.70
6102;DHT22;3081;50.584;7.032;2023-06-26T09:07:53;24.60;83.80
6102;DHT22;3081;50.584;7.032;2023-06-26T09:10:22;24.80;83.40
6102;DHT22;3081;50.584;7.032;2023-06-26T09:12:49;24.90;83.10
6102;DHT22;3081;50.584;7.032;2023-06-26T09:15:19;25.10;82.10
6102;DHT22;3081;50.584;7.032;2023-06-26T09:17:48;25.30;82.00
6102;DHT22;3081;50.584;7.032;2023-06-26T09:20:15;25.20;83.20
6102;DHT22;3081;50.584;7.032;2023-06-26T09:22:43;25.40;82.70
6102;DHT22;3081;50.584;7.032;2023-06-26T09:25:14;25.50;81.70
6102;DHT22;3081;50.584;7.032;2023-06-26T09:27:42;25.40;81.40
6102;DHT22;3081;50.584;7.032;2023-06-26T09:30:10;25.40;83.50
6102;DHT22;3081;50.584;7.032;2023-06-26T09:32:37;25.60;79.70
6102;DHT22;3081;50.584;7.032;2023-06-26T09:35:05;25.70;77.80
6102;DHT22;3081;50.584;7.032;2023-06-26T09:37:32;25.70;76.00
6102;DHT22;3081;50.584;7.032;2023-06-26T09:40:00;25.70;75.90
6102;DHT22;3081;50.584;7.032;2023-06-26T09:42:29;25.90;75.20
6102;DHT22;3081;50.584;7.032;2023-06-26T09:44:57;25.90;76.20
6102;DHT22;3081;50.584;7.032;2023-06-26T09:47:24;25.90;77.10
6102;DHT22;3081;50.584;7.032;2023-06-26T09:49:51;26.20;75.70
6102;DHT22;3081;50.584;7.032;2023-06-26T09:52:20;26.70;76.10
6102;DHT22;3081;50.584;7.032;2023-06-26T09:54:47;27.10;75.00
6102;DHT22;3081;50.584;7.032;2023-06-26T09:57:16;27.50;73.50
6102;DHT22;3081;50.584;7.032;2023-06-26T09:59:44;27.90;70.20
6102;DHT22;3081;50.584;7.032;2023-06-26T10:02:12;27.50;70.50
6102;DHT22;3081;50.584;7.032;2023-06-26T10:04:39;27.20;71.50
6102;DHT22;3081;50.584;7.032;2023-06-26T10:07:08;27.10;72.20
6102;DHT22;3081;50.584;7.032;2023-06-26T10:09:40;27.40;72.10
6102;DHT22;3081;50.584;7.032;2023-06-26T10:12:12;27.20;70.70
6102;DHT22;3081;50.584;7.032;2023-06-26T10:14:43;26.70;71.10
6102;DHT22;3081;50.584;7.032;2023-06-26T10:17:14;27.30;70.50
6102;DHT22;3081;50.584;7.032;2023-06-26T10:19:44;28.30;68.80
6102;DHT22;3081;50.584;7.032;2023-06-26T10:22:12;28.70;67.30
6102;DHT22;3081;50.584;7.032;2023-06-26T10:24:41;28.60;66.70
6102;DHT22;3081;50.584;7.032;2023-06-26T10:27:14;28.50;66.10
6102;DHT22;3081;50.584;7.032;2023-06-26T10:29:43;28.70;63.50
6102;DHT22;3081;50.584;7.032;2023-06-26T10:32:13;28.30;63.00
6102;DHT22;3081;50.584;7.032;2023-06-26T10:34:40;28.30;63.90
6102;DHT22;3081;50.584;7.032;2023-06-26T10:37:08;28.60;62.30
6102;DHT22;3081;50.584;7.032;2023-06-26T10:39:48;29.10;59.90
6102;DHT22;3081;50.584;7.032;2023-06-26T10:42:16;30.00;59.90
6102;DHT22;3081;50.584;7.032;2023-06-26T10:44:45;30.40;59.20
6102;DHT22;3081;50.584;7.032;2023-06-26T10:47:29;29.20;61.20
6102;DHT22;3081;50.584;7.032;2023-06-26T10:49:56;28.80;62.60
6102;DHT22;3081;50.584;7.032;2023-06-26T10:52:26;28.70;63.40
6102;DHT22;3081;50.584;7.032;2023-06-26T10:54:54;28.90;61.80
6102;DHT22;3081;50.584;7.032;2023-06-26T10:57:24;29.40;62.60
6102;DHT22;3081;50.584;7.032;2023-06-26T11:00:08;29.80;61.60
6102;DHT22;3081;50.584;7.032;2023-06-26T11:02:49;30.00;61.00
6102;DHT22;3081;50.584;7.032;2023-06-26T11:05:26;30.40;59.30
6102;DHT22;3081;50.584;7.032;2023-06-26T11:08:03;30.20;59.30
6102;DHT22;3081;50.584;7.032;2023-06-26T11:10:48;30.20;57.10
6102;DHT22;3081;50.584;7.032;2023-06-26T11:13:17;30.60;57.20
6102;DHT22;3081;50.584;7.032;2023-06-26T11:15:44;30.50;57.10
6102;DHT22;3081;50.584;7.032;2023-06-26T11:18:13;30.60;57.20
6102;DHT22;3081;50.584;7.032;2023-06-26T11:20:40;30.60;57.20
6102;DHT22;3081;50.584;7.032;2023-06-26T11:23:08;30.70;56.50
6102;DHT22;3081;50.584;7.032;2023-06-26T11:25:36;30.60;57.00
6102;DHT22;3081;50.584;7.032;2023-06-26T11:28:04;31.00;56.30
6102;DHT22;3081;50.584;7.032;2023-06-26T11:30:31;31.30;54.90
6102;DHT22;3081;50.584;7.032;2023-06-26T11:33:06;30.90;54.30
6102;DHT22;3081;50.584;7.032;2023-06-26T11:35:35;30.90;53.60
6102;DHT22;3081;50.584;7.032;2023-06-26T11:38:03;31.10;55.40
6102;DHT22;3081;50.584;7.032;2023-06-26T11:40:31;31.10;55.70
6102;DHT22;3081;50.584;7.032;2023-06-26T11:42:59;31.50;54.90
6102;DHT22;3081;50.584;7.032;2023-06-26T11:45:28;31.50;54.70
6102;DHT22;3081;50.584;7.032;2023-06-26T11:47:56;31.60;54.60
6102;DHT22;3081;50.584;7.032;2023-06-26T11:50:24;31.50;54.40
6102;DHT22;3081;50.584;7.032;2023-06-26T11:52:56;31.10;55.00
6102;DHT22;3081;50.584;7.032;2023-06-26T11:55:24;30.70;55.20
6102;DHT22;3081;50.584;7.032;2023-06-26T11:57:54;30.40;56.60
6102;DHT22;3081;50.584;7.032;2023-06-26T12:00:21;30.60;55.10
6102;DHT22;3081;50.584;7.032;2023-06-26T12:02:48;31.30;55.00
6102;DHT22;3081;50.584;7.032;2023-06-26T12:05:17;32.10;53.20
6102;DHT22;3081;50.584;7.032;2023-06-26T12:07:46;31.90;52.90
6102;DHT22;3081;50.584;7.032;2023-06-26T12:10:15;31.50;54.00
6102;DHT22;3081;50.584;7.032;2023-06-26T12:12:42;31.90;53.30
6102;DHT22;3081;50.584;7.032;2023-06-26T12:15:13;32.00;53.30
6102;DHT22;3081;50.584;7.032;2023-06-26T12:17:41;31.90;51.90
6102;DHT22;3081;50.584;7.032;2023-06-26T12:20:18;31.80;51.50
6102;DHT22;3081;50.584;7.032;2023-06-26T12:22:46;31.50;51.40
6102;DHT22;3081;50.584;7.032;2023-06-26T12:25:16;31.10;53.10
6102;DHT22;3081;50.584;7.032;2023-06-26T12:27:48;31.00;52.50
6102;DHT22;3081;50.584;7.032;2023-06-26T12:30:15;30.10;53.10
6102;DHT22;3081;50.584;7.032;2023-06-26T12:32:44;30.00;53.40
6102;DHT22;3081;50.584;7.032;2023-06-26T12:35:12;30.80;53.60
6102;DHT22;3081;50.584;7.032;2023-06-26T12:37:39;31.90;51.90
6102;DHT22;3081;50.584;7.032;2023-06-26T12:40:18;32.40;51.50
6102;DHT22;3081;50.584;7.032;2023-06-26T12:42:47;32.40;49.40
6102;DHT22;3081;50.584;7.032;2023-06-26T12:45:15;32.60;50.80
6102;DHT22;3081;50.584;7.032;2023-06-26T12:47:42;33.00;50.10
6102;DHT22;3081;50.584;7.032;2023-06-26T12:50:11;33.00;49.80
6102;DHT22;3081;50.584;7.032;2023-06-26T12:52:38;33.20;48.80
6102;DHT22;3081;50.584;7.032;2023-06-26T12:55:06;33.50;48.40
6102;DHT22;3081;50.584;7.032;2023-06-26T12:57:34;33.50;48.30
6102;DHT22;3081;50.584;7.032;2023-06-26T13:00:01;33.20;49.60
6102;DHT22;3081;50.584;7.032;2023-06-26T13:02:28;33.40;49.60
6102;DHT22;3081;50.584;7.032;2023-06-26T13:04:55;33.50;49.90
6102;DHT22;3081;50.584;7.032;2023-06-26T13:07:22;34.10;50.10
6102;DHT22;3081;50.584;7.032;2023-06-26T13:09:51;34.80;48.70
6102;DHT22;3081;50.584;7.032;2023-06-26T13:12:17;35.20;47.90
6102;DHT22;3081;50.584;7.032;2023-06-26T13:14:46;34.00;47.00
6102;DHT22;3081;50.584;7.032;2023-06-26T13:17:13;32.90;48.80
6102;DHT22;3081;50.584;7.032;2023-06-26T13:19:40;32.80;49.50
6102;DHT22;3081;50.584;7.032;2023-06-26T13:22:07;32.90;49.90
6102;DHT22;3081;50.584;7.032;2023-06-26T13:24:34;32.20;50.50
6102;DHT22;3081;50.584;7.032;2023-06-26T13:27:01;31.10;52.10
6102;DHT22;3081;50.584;7.032;2023-06-26T13:29:28;30.30;53.30
6102;DHT22;3081;50.584;7.032;2023-06-26T13:31:57;30.40;54.70
6102;DHT22;3081;50.584;7.032;2023-06-26T13:34:24;31.80;52.70
6102;DHT22;3081;50.584;7.032;2023-06-26T13:36:53;33.20;50.10
6102;DHT22;3081;50.584;7.032;2023-06-26T13:39:20;34.00;49.30
6102;DHT22;3081;50.584;7.032;2023-06-26T13:41:47;35.00;48.00
6102;DHT22;3081;50.584;7.032;2023-06-26T13:44:14;36.10;45.20
6102;DHT22;3081;50.584;7.032;2023-06-26T13:46:41;36.00;45.10
6102;DHT22;3081;50.584;7.032;2023-06-26T13:49:09;34.90;45.80
6102;DHT22;3081;50.584;7.032;2023-06-26T13:51:36;33.40;47.90
6102;DHT22;3081;50.584;7.032;2023-06-26T13:54:03;33.40;47.60
6102;DHT22;3081;50.584;7.032;2023-06-26T13:56:30;34.20;47.20
6102;DHT22;3081;50.584;7.032;2023-06-26T13:58:57;34.50;45.80
6102;DHT22;3081;50.584;7.032;2023-06-26T14:01:25;34.60;46.00
6102;DHT22;3081;50.584;7.032;2023-06-26T14:03:52;34.80;45.20
6102;DHT22;3081;50.584;7.032;2023-06-26T14:06:20;35.40;44.60
6102;DHT22;3081;50.584;7.032;2023-06-26T14:08:47;35.90;43.20
6102;DHT22;3081;50.584;7.032;2023-06-26T14:11:14;36.30;43.00
6102;DHT22;3081;50.584;7.032;2023-06-26T14:13:42;36.30;42.80
6102;DHT22;3081;50.584;7.032;2023-06-26T14:16:09;36.80;44.30
6102;DHT22;3081;50.584;7.032;2023-06-26T14:18:36;37.20;44.20
6102;DHT22;3081;50.584;7.032;2023-06-26T14:21:03;36.70;43.30
6102;DHT22;3081;50.584;7.032;2023-06-26T14:23:31;34.50;45.40
6102;DHT22;3081;50.584;7.032;2023-06-26T14:26:06;33.40;47.90
6102;DHT22;3081;50.584;7.032;2023-06-26T14:28:33;34.60;47.60
6102;DHT22;3081;50.584;7.032;2023-06-26T14:31:00;35.70;45.40
6102;DHT22;3081;50.584;7.032;2023-06-26T14:33:27;34.20;46.40
6102;DHT22;3081;50.584;7.032;2023-06-26T14:35:53;33.60;47.30
6102;DHT22;3081;50.584;7.032;2023-06-26T14:38:20;33.90;46.40
6102;DHT22;3081;50.584;7.032;2023-06-26T14:40:49;33.40;46.80
6102;DHT22;3081;50.584;7.032;2023-06-26T14:43:15;32.20;48.20
6102;DHT22;3081;50.584;7.032;2023-06-26T14:45:42;32.40;49.00
6102;DHT22;3081;50.584;7.032;2023-06-26T14:48:09;34.40;46.40
6102;DHT22;3081;50.584;7.032;2023-06-26T14:50:36;36.00;45.40
6102;DHT22;3081;50.584;7.032;2023-06-26T14:53:03;36.30;44.00
6102;DHT22;3081;50.584;7.032;2023-06-26T14:55:30;35.30;43.70
6102;DHT22;3081;50.584;7.032;2023-06-26T14:57:59;35.70;43.80
6102;DHT22;3081;50.584;7.032;2023-06-26T15:00:26;36.50;42.00
6102;DHT22;3081;50.584;7.032;2023-06-26T15:02:52;36.70;42.00
6102;DHT22;3081;50.584;7.032;2023-06-26T15:05:20;35.10;42.20
6102;DHT22;3081;50.584;7.032;2023-06-26T15:07:47;32.70;45.00
6102;DHT22;3081;50.584;7.032;2023-06-26T15:10:14;31.10;48.00
6102;DHT22;3081;50.584;7.032;2023-06-26T15:12:41;31.60;50.10
6102;DHT22;3081;50.584;7.032;2023-06-26T15:15:10;33.40;47.20
6102;DHT22;3081;50.584;7.032;2023-06-26T15:17:38;34.40;45.60
6102;DHT22;3081;50.584;7.032;2023-06-26T15:20:06;33.40;46.50
6102;DHT22;3081;50.584;7.032;2023-06-26T15:22:33;34.50;46.60
6102;DHT22;3081;50.584;7.032;2023-06-26T15:25:00;36.60;43.70
6102;DHT22;3081;50.584;7.032;2023-06-26T15:27:28;37.30;41.90
6102;DHT22;3081;50.584;7.032;2023-06-26T15:29:54;34.80;44.30
6102;DHT22;3081;50.584;7.032;2023-06-26T15:32:23;33.30;46.10
6102;DHT22;3081;50.584;7.032;2023-06-26T15:34:50;31.80;47.90
6102;DHT22;3081;50.584;7.032;2023-06-26T15:37:16;33.00;48.30
6102;DHT22;3081;50.584;7.032;2023-06-26T15:39:43;35.10;44.60
6102;DHT22;3081;50.584;7.032;2023-06-26T15:42:10;36.50;43.10
6102;DHT22;3081;50.584;7.032;2023-06-26T15:44:37;37.50;42.20
6102;DHT22;3081;50.584;7.032;2023-06-26T15:47:05;37.30;40.40
6102;DHT22;3081;50.584;7.032;2023-06-26T15:49:33;37.30;41.00
6102;DHT22;3081;50.584;7.032;2023-06-26T15:52:00;37.60;39.80
6102;DHT22;3081;50.584;7.032;2023-06-26T15:54:27;37.30;40.20
6102;DHT22;3081;50.584;7.032;2023-06-26T15:56:54;36.90;40.40
6102;DHT22;3081;50.584;7.032;2023-06-26T15:59:21;34.70;41.80
6102;DHT22;3081;50.584;7.032;2023-06-26T16:01:48;32.40;44.00
6102;DHT22;3081;50.584;7.032;2023-06-26T16:04:16;30.40;46.60
6102;DHT22;3081;50.584;7.032;2023-06-26T16:06:45;29.80;48.40